createdAt,value
2023-05-12T00:01:16.163Z,7.33
2023-05-12T00:03:55.102Z,7.32
2023-05-12T00:06:48.429Z,7.31
2023-05-12T00:09:42.253Z,7.31
2023-05-12T00:12:35.408Z,7.32
2023-05-12T00:15:29.617Z,7.33
2023-05-12T00:18:12.147Z,7.33
2023-05-12T00:21:04.806Z,7.33
2023-05-12T00:23:57.643Z,7.35
2023-05-12T00:26:50.965Z,7.34
2023-05-12T00:29:43.657Z,7.34
2023-05-12T00:32:36.448Z,7.34
2023-05-12T00:35:29.441Z,7.33
2023-05-12T00:38:22.108Z,7.31
2023-05-12T00:41:14.660Z,7.28
2023-05-12T00:44:08.110Z,7.25
2023-05-12T00:47:01.492Z,7.20
2023-05-12T00:49:54.809Z,7.16
2023-05-12T00:52:47.967Z,7.12
2023-05-12T00:55:41.975Z,7.07
2023-05-12T00:58:35.112Z,7.06
2023-05-12T01:01:29.055Z,7.06
2023-05-12T01:04:21.865Z,7.06
2023-05-12T01:07:36.699Z,7.07
2023-05-12T01:10:29.390Z,7.11
2023-05-12T01:13:22.166Z,7.16
2023-05-12T01:16:18.502Z,7.22
2023-05-12T01:19:18.980Z,7.28
2023-05-12T01:22:13.761Z,7.34
2023-05-12T01:25:09.689Z,7.40
2023-05-12T01:28:03.569Z,7.46
2023-05-12T01:30:56.312Z,7.51
2023-05-12T01:33:49.366Z,7.54
2023-05-12T01:36:42.203Z,7.58
2023-05-12T01:39:35.775Z,7.61
2023-05-12T01:42:28.648Z,7.63
2023-05-12T01:45:21.926Z,7.65
2023-05-12T01:48:15.191Z,7.66
2023-05-12T01:51:09.975Z,7.65
2023-05-12T01:54:02.795Z,7.66
2023-05-12T01:56:55.305Z,7.65
2023-05-12T01:59:48.151Z,7.64
2023-05-12T02:02:34.906Z,7.65
2023-05-12T02:05:27.892Z,7.63
2023-05-12T02:08:20.853Z,7.64
2023-05-12T02:11:13.555Z,7.65
2023-05-12T02:14:06.911Z,7.66
2023-05-12T02:16:59.629Z,7.69
2023-05-12T02:19:52.271Z,7.71
2023-05-12T02:22:45.100Z,7.73
2023-05-12T02:25:38.104Z,7.73
2023-05-12T02:28:31.003Z,7.73
2023-05-12T02:31:23.842Z,7.71
2023-05-12T02:34:16.919Z,7.69
2023-05-12T02:37:10.299Z,7.63
2023-05-12T02:40:04.822Z,7.59
2023-05-12T02:42:57.563Z,7.55
2023-05-12T02:45:51.905Z,7.51
2023-05-12T02:48:44.390Z,7.46
2023-05-12T02:51:37.553Z,7.39
2023-05-12T02:54:31.067Z,7.32
2023-05-12T02:57:24.087Z,7.24
2023-05-12T03:00:18.273Z,7.17
2023-05-12T03:02:54.352Z,7.11
2023-05-12T03:05:48.801Z,7.06
2023-05-12T03:08:41.357Z,7.01
2023-05-12T03:11:27.531Z,6.98
2023-05-12T03:14:20.659Z,6.95
2023-05-12T03:17:14.233Z,6.93
2023-05-12T03:20:00.842Z,6.91
2023-05-12T03:22:54.318Z,6.89
2023-05-12T03:25:47.119Z,6.86
2023-05-12T03:28:40.374Z,6.85
2023-05-12T03:31:33.126Z,6.87
2023-05-12T03:34:25.942Z,6.89
2023-05-12T03:37:18.643Z,6.91
2023-05-12T03:40:19.320Z,6.94
2023-05-12T03:43:13.051Z,6.98
2023-05-12T03:45:55.879Z,7.03
2023-05-12T03:48:48.607Z,7.08
2023-05-12T03:51:41.604Z,7.16
2023-05-12T03:54:36.093Z,7.24
2023-05-12T03:57:30.481Z,7.35
2023-05-12T04:00:23.279Z,7.46
2023-05-12T04:03:16.285Z,7.59
2023-05-12T04:06:07.602Z,7.73
2023-05-12T04:09:00.424Z,7.86
2023-05-12T04:11:43.164Z,7.97
2023-05-12T04:14:42.838Z,8.10
2023-05-12T04:17:36.300Z,8.22
2023-05-12T04:20:29.160Z,8.35
2023-05-12T04:23:23.091Z,8.47
2023-05-12T04:25:55.334Z,8.59
2023-05-12T04:28:42.049Z,8.75
2023-05-12T04:31:34.703Z,8.98
2023-05-12T04:34:27.598Z,9.43
2023-05-12T04:37:22.384Z,10.08
2023-05-12T04:40:16.030Z,10.74
2023-05-12T04:42:56.741Z,11.20
2023-05-12T04:45:51.637Z,11.60
2023-05-12T04:48:30.208Z,11.92
2023-05-12T04:51:06.249Z,12.17
2023-05-12T04:53:58.754Z,12.46
2023-05-12T04:56:33.786Z,12.50
2023-05-12T04:59:09.986Z,12.46
2023-05-12T05:01:46.321Z,12.55
2023-05-12T05:04:32.124Z,12.87
2023-05-12T05:07:24.815Z,13.31
2023-05-12T05:10:12.922Z,13.42
2023-05-12T05:12:59.380Z,13.31
2023-05-12T05:15:56.422Z,13.07
2023-05-12T05:18:49.834Z,12.93
2023-05-12T05:21:42.565Z,12.82
2023-05-12T05:24:35.439Z,12.73
2023-05-12T05:27:28.289Z,12.67
2023-05-12T05:30:21.033Z,12.68
2023-05-12T05:33:14.237Z,12.67
2023-05-12T05:36:09.291Z,12.59
2023-05-12T05:39:02.035Z,12.54
2023-05-12T05:41:56.234Z,12.50
2023-05-12T05:44:31.594Z,12.44
2023-05-12T05:47:24.557Z,12.49
2023-05-12T05:50:17.415Z,12.60
2023-05-12T05:53:10.033Z,12.71
2023-05-12T05:55:55.516Z,12.87
2023-05-12T05:58:48.334Z,12.93
2023-05-12T06:01:41.033Z,13.12
2023-05-12T06:04:33.759Z,13.31
2023-05-12T06:07:26.712Z,13.51
2023-05-12T06:10:19.935Z,13.72
2023-05-12T06:13:02.596Z,13.92
2023-05-12T06:15:35.332Z,14.13
2023-05-12T06:18:17.548Z,14.32
2023-05-12T06:20:53.395Z,14.45
2023-05-12T06:23:28.429Z,14.59
2023-05-12T06:26:04.142Z,14.66
2023-05-12T06:28:36.559Z,14.76
2023-05-12T06:31:11.516Z,14.71
2023-05-12T06:33:45.940Z,14.63
2023-05-12T06:36:18.560Z,14.63
2023-05-12T06:38:52.456Z,14.73
2023-05-12T06:41:25.423Z,14.87
2023-05-12T06:44:00.380Z,15.15
2023-05-12T06:46:33.493Z,15.55
2023-05-12T06:49:05.922Z,15.93
2023-05-12T06:51:41.111Z,16.15
2023-05-12T06:54:16.620Z,16.24
2023-05-12T06:56:52.442Z,16.30
2023-05-12T06:59:25.074Z,16.25
2023-05-12T07:02:00.721Z,16.23
2023-05-12T07:04:54.273Z,16.19
2023-05-12T07:07:28.221Z,16.16
2023-05-12T07:10:00.796Z,16.12
2023-05-12T07:12:33.389Z,16.17
2023-05-12T07:15:11.269Z,16.31
2023-05-12T07:17:46.390Z,16.48
2023-05-12T07:20:19.115Z,16.62
2023-05-12T07:23:12.194Z,16.71
2023-05-12T07:25:45.220Z,16.71
2023-05-12T07:28:21.369Z,16.72
2023-05-12T07:31:09.106Z,16.66
2023-05-12T07:34:02.399Z,16.68
2023-05-12T07:36:34.781Z,16.73
2023-05-12T07:39:27.234Z,16.79
2023-05-12T07:42:01.825Z,16.85
2023-05-12T07:44:34.522Z,16.86
2023-05-12T07:47:17.334Z,16.90
2023-05-12T07:49:49.769Z,16.93
2023-05-12T07:52:22.151Z,16.91
2023-05-12T07:54:58.908Z,16.93
2023-05-12T07:57:31.674Z,16.93
2023-05-12T08:00:09.376Z,16.97
2023-05-12T08:02:51.008Z,16.97
2023-05-12T08:05:23.753Z,16.97
2023-05-12T08:07:56.539Z,17.01
2023-05-12T08:10:30.053Z,17.10
2023-05-12T08:13:07.207Z,17.12
2023-05-12T08:15:40.401Z,17.10
2023-05-12T08:18:13.182Z,17.11
2023-05-12T08:21:02.043Z,17.17
2023-05-12T08:23:37.847Z,17.31
2023-05-12T08:26:11.294Z,17.39
2023-05-12T08:28:55.590Z,17.39
2023-05-12T08:31:49.044Z,17.41
2023-05-12T08:34:25.316Z,17.48
2023-05-12T08:37:18.179Z,17.55
2023-05-12T08:40:02.378Z,17.61
2023-05-12T08:43:01.943Z,17.66
2023-05-12T08:45:58.501Z,17.73
2023-05-12T08:48:39.656Z,17.80
2023-05-12T08:51:34.548Z,17.88
2023-05-12T08:54:13.648Z,18.01
2023-05-12T08:59:59.462Z,18.10
2023-05-12T09:02:54.962Z,18.10
2023-05-12T09:05:48.590Z,18.21
2023-05-12T09:08:21.645Z,18.33
2023-05-12T09:11:15.706Z,18.42
2023-05-12T09:14:17.181Z,18.50
2023-05-12T09:17:09.989Z,18.62
2023-05-12T09:20:03.645Z,18.61
2023-05-12T09:22:58.516Z,18.55
2023-05-12T09:26:02.438Z,18.60
2023-05-12T09:29:15.795Z,18.64
2023-05-12T09:32:07.185Z,18.68
2023-05-12T09:35:03.166Z,18.72
2023-05-12T09:37:43.038Z,18.76
2023-05-12T09:40:37.060Z,18.83
2023-05-12T09:43:31.706Z,18.91
2023-05-12T09:46:26.110Z,18.94
2023-05-12T09:49:25.944Z,19.04
2023-05-12T09:52:04.246Z,19.20
2023-05-12T09:54:57.151Z,19.27
2023-05-12T09:57:50.794Z,19.27
2023-05-12T10:01:12.932Z,19.27
2023-05-12T10:03:38.972Z,19.19
2023-05-12T10:06:34.223Z,19.27
2023-05-12T10:09:30.233Z,19.27
2023-05-12T10:12:12.478Z,19.14
2023-05-12T10:14:47.951Z,19.16
2023-05-12T10:17:21.560Z,19.21
2023-05-12T10:20:06.954Z,19.43
2023-05-12T10:23:02.809Z,19.42
2023-05-12T10:25:36.122Z,19.41
2023-05-12T10:28:19.964Z,19.46
2023-05-12T10:31:15.192Z,19.60
2023-05-12T10:34:08.126Z,19.93
2023-05-12T10:37:01.396Z,20.16
2023-05-12T10:39:52.504Z,20.20
2023-05-12T10:42:43.315Z,20.31
2023-05-12T10:45:27.942Z,20.46
2023-05-12T10:48:20.657Z,20.53
2023-05-12T10:51:14.158Z,20.56
2023-05-12T10:54:03.884Z,20.84
2023-05-12T10:57:02.234Z,21.24
2023-05-12T10:59:58.635Z,21.28
2023-05-12T11:02:57.848Z,21.24
2023-05-12T11:06:04.837Z,21.20
2023-05-12T11:08:58.883Z,21.20
2023-05-12T11:11:54.156Z,21.34
2023-05-12T11:14:48.338Z,21.24
2023-05-12T11:17:43.163Z,21.05
2023-05-12T11:20:36.089Z,20.86
2023-05-12T11:23:32.321Z,20.78
2023-05-12T11:26:21.502Z,20.57
2023-05-12T11:29:14.228Z,20.53
2023-05-12T11:32:07.537Z,20.73
2023-05-12T11:35:11.549Z,20.94
2023-05-12T11:38:04.182Z,21.18
2023-05-12T11:40:57.118Z,21.14
2023-05-12T11:43:50.192Z,21.11
2023-05-12T11:46:43.556Z,21.00
2023-05-12T11:49:46.669Z,20.55
2023-05-12T11:52:39.287Z,20.37
2023-05-12T11:55:26.232Z,20.31
2023-05-12T11:58:33.971Z,20.25
2023-05-12T12:01:30.473Z,20.15
2023-05-12T12:04:34.437Z,20.06
2023-05-12T12:07:34.432Z,20.04
2023-05-12T12:10:27.405Z,20.07
2023-05-12T12:13:14.441Z,20.00
2023-05-12T12:15:57.580Z,19.88
2023-05-12T12:18:43.072Z,19.87
2023-05-12T12:21:36.506Z,19.89
2023-05-12T12:24:29.309Z,19.77
2023-05-12T12:27:22.001Z,19.75
2023-05-12T12:30:17.065Z,19.87
2023-05-12T12:33:10.196Z,19.89
2023-05-12T12:36:03.563Z,19.87
2023-05-12T12:38:56.405Z,19.95
2023-05-12T12:41:49.377Z,20.07
2023-05-12T12:44:35.552Z,20.08
2023-05-12T12:47:28.238Z,20.04
2023-05-12T12:50:21.719Z,19.92
2023-05-12T12:53:05.549Z,19.90
2023-05-12T12:55:59.005Z,20.03
2023-05-12T12:58:51.825Z,20.07
2023-05-12T13:01:24.496Z,20.12
2023-05-12T13:04:08.544Z,20.04
2023-05-12T13:07:01.501Z,19.97
2023-05-12T13:09:34.454Z,19.85
2023-05-12T13:12:28.351Z,19.75
2023-05-12T13:15:02.452Z,19.68
2023-05-12T13:17:57.391Z,19.68
2023-05-12T13:20:50.303Z,19.77
2023-05-12T13:23:43.671Z,19.84
2023-05-12T13:26:27.664Z,19.79
2023-05-12T13:29:20.690Z,19.76
2023-05-12T13:32:02.268Z,19.82
2023-05-12T13:34:43.900Z,19.97
2023-05-12T13:37:16.639Z,20.04
2023-05-12T13:39:49.303Z,20.08
2023-05-12T13:42:24.613Z,20.06
2023-05-12T13:44:59.340Z,19.95
2023-05-12T13:47:41.303Z,19.88
2023-05-12T13:50:15.573Z,19.79
2023-05-12T13:52:48.796Z,19.71
2023-05-12T13:55:40.638Z,19.68
2023-05-12T13:58:22.808Z,19.70
2023-05-12T14:00:58.632Z,19.74
2023-05-12T14:03:33.240Z,19.68
2023-05-12T14:06:07.737Z,19.66
2023-05-12T14:08:43.456Z,19.65
2023-05-12T14:11:16.967Z,19.60
2023-05-12T14:14:01.565Z,19.66
2023-05-12T14:16:36.941Z,19.70
2023-05-12T14:19:11.639Z,19.82
2023-05-12T14:21:44.427Z,19.84
2023-05-12T14:24:20.518Z,19.78
2023-05-12T14:26:54.996Z,19.74
2023-05-12T14:29:27.785Z,19.74
2023-05-12T14:32:03.336Z,19.64
2023-05-12T14:34:36.475Z,19.63
2023-05-12T14:37:09.580Z,19.62
2023-05-12T14:39:42.048Z,19.56
2023-05-12T14:42:14.893Z,19.49
2023-05-12T14:44:47.583Z,19.41
2023-05-12T14:47:40.477Z,19.41
2023-05-12T14:50:15.182Z,19.46
2023-05-12T14:52:50.049Z,19.43
2023-05-12T14:55:26.019Z,19.40
2023-05-12T14:57:58.938Z,19.43
2023-05-12T15:00:42.553Z,19.49
2023-05-12T15:03:21.293Z,19.50
2023-05-12T15:06:06.543Z,19.53
2023-05-12T15:08:39.556Z,19.65
2023-05-12T15:11:12.522Z,19.78
2023-05-12T15:14:05.421Z,19.97
2023-05-12T15:16:41.259Z,20.10
2023-05-12T15:19:25.290Z,20.24
2023-05-12T15:21:57.959Z,20.28
2023-05-12T15:24:30.425Z,20.23
2023-05-12T15:27:02.992Z,20.15
2023-05-12T15:29:38.836Z,20.01
2023-05-12T15:32:27.123Z,19.86
2023-05-12T15:35:20.223Z,19.77
2023-05-12T15:38:13.730Z,19.73
2023-05-12T15:41:06.819Z,19.61
2023-05-12T15:44:00.155Z,19.62
2023-05-12T15:46:53.280Z,19.59
2023-05-12T15:49:49.332Z,19.48
2023-05-12T15:52:31.755Z,19.35
2023-05-12T15:55:24.746Z,19.24
2023-05-12T15:58:17.468Z,19.13
2023-05-12T16:01:00.420Z,19.14
2023-05-12T16:03:44.349Z,19.10
2023-05-12T16:06:37.310Z,19.02
2023-05-12T16:09:30.919Z,18.95
2023-05-12T16:12:03.180Z,18.99
2023-05-12T16:14:56.227Z,19.11
2023-05-12T16:17:49.275Z,19.23
2023-05-12T16:20:33.190Z,19.02
2023-05-12T16:23:26.250Z,18.95
2023-05-12T16:26:19.656Z,19.15
2023-05-12T16:29:13.396Z,19.22
2023-05-12T16:32:07.619Z,19.32
2023-05-12T16:34:43.195Z,19.50
2023-05-12T16:37:36.066Z,19.62
2023-05-12T16:40:19.186Z,19.39
2023-05-12T16:43:12.232Z,18.99
2023-05-12T16:45:48.235Z,18.66
2023-05-12T16:48:34.461Z,18.36
2023-05-12T16:51:17.333Z,18.11
2023-05-12T16:53:53.584Z,18.05
2023-05-12T16:56:37.625Z,18.32
2023-05-12T16:59:22.949Z,18.67
2023-05-12T17:02:08.944Z,18.91
2023-05-12T17:05:02.272Z,18.98
2023-05-12T17:07:37.280Z,18.73
2023-05-12T17:10:30.178Z,18.44
2023-05-12T17:13:23.458Z,18.17
2023-05-12T17:16:16.258Z,17.88
2023-05-12T17:21:34.737Z,17.45
2023-05-12T17:24:16.494Z,17.21
2023-05-12T17:26:52.057Z,17.00
2023-05-12T17:29:44.655Z,16.79
2023-05-12T17:32:28.412Z,16.56
2023-05-12T17:35:21.476Z,16.38
2023-05-12T17:38:14.619Z,16.22
2023-05-12T17:41:02.422Z,16.07
2023-05-12T17:43:45.242Z,15.91
2023-05-12T17:46:24.120Z,15.78
2023-05-12T17:49:16.965Z,15.63
2023-05-12T17:52:10.750Z,15.49
2023-05-12T17:54:58.395Z,15.35
2023-05-12T17:57:41.447Z,15.21
2023-05-12T18:00:25.538Z,15.07
2023-05-12T18:03:25.505Z,14.92
2023-05-12T18:06:01.372Z,14.78
2023-05-12T18:08:36.032Z,14.65
2023-05-12T18:11:10.077Z,14.50
2023-05-12T18:13:52.233Z,14.34
2023-05-12T18:16:28.904Z,14.20
2023-05-12T18:19:22.277Z,14.04
2023-05-12T18:21:55.364Z,13.91
2023-05-12T18:24:28.108Z,13.76
2023-05-12T18:27:06.346Z,13.63
2023-05-12T18:29:42.453Z,13.52
2023-05-12T18:32:17.548Z,13.39
2023-05-12T18:34:52.823Z,13.30
2023-05-12T18:37:29.220Z,13.19
2023-05-12T18:40:12.964Z,13.07
2023-05-12T18:42:48.266Z,12.96
2023-05-12T18:45:20.950Z,12.85
2023-05-12T18:47:53.560Z,12.73
2023-05-12T18:50:46.654Z,12.60
2023-05-12T18:53:19.216Z,12.47
2023-05-12T18:55:51.914Z,12.34
2023-05-12T18:58:24.766Z,12.21
2023-05-12T19:01:21.250Z,12.06
2023-05-12T19:04:03.888Z,11.90
2023-05-12T19:06:47.014Z,11.75
2023-05-12T19:09:39.758Z,11.58
2023-05-12T19:12:16.526Z,11.44
2023-05-12T19:15:11.185Z,11.29
2023-05-12T19:17:43.802Z,11.14
2023-05-12T19:20:16.837Z,11.01
2023-05-12T19:23:10.280Z,10.87
2023-05-12T19:25:43.633Z,10.76
2023-05-12T19:28:37.946Z,10.63
2023-05-12T19:31:31.476Z,10.50
2023-05-12T19:34:14.401Z,10.38
2023-05-12T19:36:56.340Z,10.27
2023-05-12T19:39:28.938Z,10.16
2023-05-12T19:42:01.890Z,10.07
2023-05-12T19:44:34.858Z,9.98
2023-05-12T19:47:28.207Z,9.88
2023-05-12T19:50:04.099Z,9.79
2023-05-12T19:52:37.611Z,9.69
2023-05-12T19:55:11.398Z,9.60
2023-05-12T19:57:45.429Z,9.50
2023-05-12T20:00:22.237Z,9.40
2023-05-12T20:03:06.869Z,9.30
2023-05-12T20:05:49.980Z,9.18
2023-05-12T20:08:22.748Z,9.08
2023-05-12T20:10:58.997Z,8.97
2023-05-12T20:13:34.724Z,8.86
2023-05-12T20:16:08.690Z,8.76
2023-05-12T20:18:44.827Z,8.66
2023-05-12T20:21:27.899Z,8.57
2023-05-12T20:24:00.696Z,8.46
2023-05-12T20:26:34.471Z,8.38
2023-05-12T20:29:07.649Z,8.29
2023-05-12T20:31:42.785Z,8.21
2023-05-12T20:34:26.772Z,8.13
2023-05-12T20:37:02.338Z,8.08
2023-05-12T20:39:35.369Z,8.04
2023-05-12T20:42:10.049Z,8.00
2023-05-12T20:44:42.726Z,7.96
2023-05-12T20:47:19.251Z,7.92
2023-05-12T20:50:00.814Z,7.88
2023-05-12T20:52:46.473Z,7.82
2023-05-12T20:55:29.302Z,7.77
2023-05-12T20:58:11.142Z,7.71
2023-05-12T21:00:57.016Z,7.64
2023-05-12T21:03:50.042Z,7.57
2023-05-12T21:06:34.146Z,7.52
2023-05-12T21:09:07.050Z,7.48
2023-05-12T21:11:46.573Z,7.45
2023-05-12T21:14:19.278Z,7.42
2023-05-12T21:17:13.137Z,7.39
2023-05-12T21:20:06.723Z,7.36
2023-05-12T21:22:42.801Z,7.33
2023-05-12T21:25:29.804Z,7.30
2023-05-12T21:28:13.994Z,7.30
2023-05-12T21:31:06.827Z,7.29
2023-05-12T21:33:44.240Z,7.27
2023-05-12T21:36:27.018Z,7.24
2023-05-12T21:39:22.778Z,7.21
2023-05-12T21:42:07.708Z,7.17
2023-05-12T21:44:54.214Z,7.12
2023-05-12T21:47:49.988Z,7.08
2023-05-12T21:50:42.709Z,7.02
2023-05-12T21:53:17.812Z,6.98
2023-05-12T21:55:51.867Z,6.94
2023-05-12T21:58:33.412Z,6.92
2023-05-12T22:01:27.662Z,6.90
2023-05-12T22:04:21.054Z,6.90
2023-05-12T22:06:59.077Z,6.89
2023-05-12T22:09:44.702Z,6.87
2023-05-12T22:12:40.863Z,6.85
2023-05-12T22:15:34.111Z,6.81
2023-05-12T22:18:20.985Z,6.78
2023-05-12T22:20:56.227Z,6.75
2023-05-12T22:23:48.834Z,6.72
2023-05-12T22:26:41.827Z,6.68
2023-05-12T22:29:34.555Z,6.64
2023-05-12T22:32:27.679Z,6.61
2023-05-12T22:35:21.195Z,6.56
2023-05-12T22:38:14.349Z,6.53
2023-05-12T22:41:07.281Z,6.49
2023-05-12T22:44:00.662Z,6.45
2023-05-12T22:46:53.812Z,6.40
2023-05-12T22:49:46.620Z,6.35
2023-05-12T22:52:34.607Z,6.29
2023-05-12T22:55:30.837Z,6.23
2023-05-12T22:58:06.143Z,6.17
2023-05-12T23:00:59.230Z,6.11
2023-05-12T23:03:35.439Z,6.07
2023-05-12T23:06:32.560Z,6.05
2023-05-12T23:09:25.199Z,6.04
2023-05-12T23:12:18.685Z,6.03
2023-05-12T23:15:12.905Z,5.97
2023-05-12T23:18:05.709Z,5.93
2023-05-12T23:20:58.717Z,5.90
2023-05-12T23:23:33.104Z,5.85
2023-05-12T23:26:17.354Z,5.82
2023-05-12T23:29:10.908Z,5.78
2023-05-12T23:31:58.983Z,5.75
2023-05-12T23:34:44.743Z,5.71
2023-05-12T23:37:20.823Z,5.67
2023-05-12T23:40:14.968Z,5.64
2023-05-12T23:43:08.014Z,5.60
2023-05-12T23:46:01.814Z,5.56
2023-05-12T23:48:37.438Z,5.53
2023-05-12T23:51:21.118Z,5.50
2023-05-12T23:54:13.770Z,5.45
2023-05-12T23:57:07.028Z,5.41
2023-05-12T23:59:43.222Z,5.37
